createdAt,value
2023-05-07T00:00:21.146Z,1.80
2023-05-07T00:02:49.494Z,1.75
2023-05-07T00:05:18.556Z,2.95
2023-05-07T00:07:46.746Z,1.92
2023-05-07T00:10:15.168Z,2.10
2023-05-07T00:13:05.449Z,1.98
2023-05-07T00:15:34.956Z,2.08
2023-05-07T00:18:03.141Z,2.03
2023-05-07T00:20:31.338Z,1.40
2023-05-07T00:22:59.557Z,2.30
2023-05-07T00:25:27.817Z,1.92
2023-05-07T00:27:56.127Z,2.05
2023-05-07T00:30:24.283Z,1.95
2023-05-07T00:32:53.886Z,2.00
2023-05-07T00:35:22.091Z,1.75
2023-05-07T00:37:50.745Z,2.00
2023-05-07T00:40:19.051Z,1.73
2023-05-07T00:42:48.382Z,1.95
2023-05-07T00:45:16.979Z,2.08
2023-05-07T00:52:01.616Z,2.13
2023-05-07T00:54:29.725Z,2.30
2023-05-07T00:56:58.505Z,1.98
2023-05-07T00:59:26.704Z,1.98
2023-05-07T01:01:55.114Z,2.53
2023-05-07T01:04:23.273Z,2.20
2023-05-07T01:06:52.748Z,2.00
2023-05-07T01:09:23.279Z,1.95
2023-05-07T01:11:52.687Z,2.33
2023-05-07T01:14:22.343Z,1.90
2023-05-07T01:16:52.014Z,1.88
2023-05-07T01:19:22.538Z,2.13
2023-05-07T01:21:53.113Z,1.90
2023-05-07T01:24:24.659Z,1.90
2023-05-07T01:26:52.787Z,2.05
2023-05-07T01:29:21.521Z,2.40
2023-05-07T01:31:52.480Z,2.53
2023-05-07T01:34:24.264Z,1.98
2023-05-07T01:36:52.570Z,2.20
2023-05-07T01:39:20.829Z,2.30
2023-05-07T01:41:50.868Z,2.70
2023-05-07T01:44:20.476Z,2.15
2023-05-07T01:46:49.915Z,2.60
2023-05-07T01:49:18.821Z,2.30
2023-05-07T01:51:47.355Z,2.30
2023-05-07T01:54:15.511Z,2.55
2023-05-07T01:56:43.789Z,2.75
2023-05-07T01:59:14.526Z,2.10
2023-05-07T02:01:43.091Z,2.20
2023-05-07T02:04:12.652Z,2.20
2023-05-07T02:06:40.947Z,2.38
2023-05-07T02:09:14.290Z,2.55
2023-05-07T02:11:44.201Z,2.35
2023-05-07T02:14:13.743Z,1.95
2023-05-07T02:16:42.054Z,2.10
2023-05-07T02:19:12.210Z,2.30
2023-05-07T02:21:40.476Z,2.38
2023-05-07T02:24:08.979Z,2.42
2023-05-07T02:26:37.195Z,2.60
2023-05-07T02:29:05.885Z,2.58
2023-05-07T02:31:36.095Z,2.72
2023-05-07T02:34:04.928Z,2.92
2023-05-07T02:36:33.094Z,2.70
2023-05-07T02:39:07.349Z,2.28
2023-05-07T02:41:35.550Z,2.13
2023-05-07T02:44:03.691Z,3.10
2023-05-07T02:46:32.536Z,2.83
2023-05-07T02:49:07.003Z,2.50
2023-05-07T02:51:36.032Z,2.67
2023-05-07T02:54:07.981Z,2.50
2023-05-07T02:56:36.541Z,2.38
2023-05-07T02:59:04.648Z,2.60
2023-05-07T03:01:36.469Z,3.33
2023-05-07T03:04:08.767Z,3.17
2023-05-07T03:06:37.056Z,2.85
2023-05-07T03:09:05.399Z,2.88
2023-05-07T03:11:34.439Z,2.75
2023-05-07T03:14:02.583Z,3.00
2023-05-07T03:16:31.232Z,3.00
2023-05-07T03:18:59.588Z,2.60
2023-05-07T03:21:29.262Z,2.78
2023-05-07T03:23:57.477Z,3.13
2023-05-07T03:26:26.261Z,2.90
2023-05-07T03:28:54.508Z,2.50
2023-05-07T03:31:22.728Z,2.95
2023-05-07T03:33:55.684Z,2.95
2023-05-07T03:36:24.351Z,2.95
2023-05-07T03:38:53.994Z,2.42
2023-05-07T03:41:25.299Z,2.50
2023-05-07T03:43:53.526Z,2.97
2023-05-07T03:46:22.187Z,3.03
2023-05-07T03:48:50.950Z,2.92
2023-05-07T03:51:21.438Z,3.17
2023-05-07T03:53:50.538Z,3.35
2023-05-07T03:56:20.982Z,3.00
2023-05-07T03:58:53.278Z,2.92
2023-05-07T04:01:21.618Z,3.28
2023-05-07T04:03:50.285Z,3.47
2023-05-07T04:24:07.090Z,2.92
2023-05-07T04:26:35.324Z,3.42
2023-05-07T04:29:03.701Z,2.58
2023-05-07T04:31:35.951Z,3.63
2023-05-07T04:34:04.269Z,3.47
2023-05-07T04:36:34.136Z,3.17
2023-05-07T04:39:07.632Z,3.22
2023-05-07T04:41:38.059Z,3.33
2023-05-07T04:44:08.081Z,3.42
2023-05-07T04:46:37.240Z,3.78
2023-05-07T04:49:06.725Z,2.95
2023-05-07T04:51:35.053Z,3.85
2023-05-07T04:54:03.561Z,3.58
2023-05-07T04:56:34.589Z,3.40
2023-05-07T04:59:03.947Z,3.33
2023-05-07T05:01:33.207Z,3.22
2023-05-07T05:04:02.283Z,3.42
2023-05-07T05:06:31.571Z,3.38
2023-05-07T05:08:59.800Z,3.70
2023-05-07T05:11:28.874Z,2.97
2023-05-07T05:13:58.340Z,3.70
2023-05-07T05:16:26.769Z,3.42
2023-05-07T05:18:55.688Z,3.45
2023-05-07T05:21:23.983Z,4.05
2023-05-07T05:23:56.343Z,3.78
2023-05-07T05:26:27.002Z,3.63
2023-05-07T05:28:55.378Z,3.83
2023-05-07T05:31:27.494Z,3.50
2023-05-07T05:33:55.687Z,3.70
2023-05-07T05:36:24.272Z,3.65
2023-05-07T05:38:55.041Z,3.72
2023-05-07T05:41:24.155Z,3.80
2023-05-07T05:43:52.624Z,3.78
2023-05-07T05:46:21.451Z,3.92
2023-05-07T05:48:53.740Z,3.67
2023-05-07T05:51:23.401Z,3.40
2023-05-07T05:53:52.171Z,3.45
2023-05-07T05:56:22.140Z,3.72
2023-05-07T05:58:50.852Z,3.60
2023-05-07T06:01:19.807Z,3.75
2023-05-07T06:03:50.115Z,3.20
2023-05-07T06:06:20.328Z,3.53
2023-05-07T06:08:48.979Z,3.67
2023-05-07T06:11:22.386Z,3.97
2023-05-07T06:13:50.530Z,3.33
2023-05-07T06:16:18.860Z,4.25
2023-05-07T06:18:47.759Z,4.22
2023-05-07T06:21:17.560Z,3.90
2023-05-07T06:23:47.186Z,4.18
2023-05-07T06:26:15.891Z,4.05
2023-05-07T06:28:47.915Z,4.22
2023-05-07T06:31:19.372Z,4.00
2023-05-07T06:33:55.141Z,4.03
2023-05-07T06:36:24.944Z,4.88
2023-05-07T06:38:56.921Z,4.53
2023-05-07T06:41:25.510Z,5.07
2023-05-07T06:43:53.690Z,4.47
2023-05-07T06:46:54.025Z,5.13
2023-05-07T06:49:22.391Z,4.93
2023-05-07T06:51:51.556Z,4.70
2023-05-07T06:54:24.400Z,4.28
2023-05-07T06:56:53.493Z,4.40
2023-05-07T06:59:21.895Z,4.70
2023-05-07T07:01:50.645Z,4.40
2023-05-07T07:04:19.561Z,4.60
2023-05-07T07:06:56.019Z,4.50
2023-05-07T07:09:26.318Z,4.53
2023-05-07T07:11:55.703Z,4.28
2023-05-07T07:14:24.105Z,4.45
2023-05-07T07:16:54.283Z,3.65
2023-05-07T07:19:23.964Z,4.57
2023-05-07T07:21:55.794Z,4.28
2023-05-07T07:24:24.126Z,4.30
2023-05-07T07:26:58.785Z,4.13
2023-05-07T07:29:28.599Z,3.70
2023-05-07T07:31:57.422Z,3.67
2023-05-07T07:34:25.861Z,3.80
2023-05-07T07:36:54.500Z,4.00
2023-05-07T07:39:22.851Z,4.40
2023-05-07T07:41:53.977Z,3.97
2023-05-07T07:44:24.674Z,4.55
2023-05-07T07:46:59.011Z,3.80
2023-05-07T07:49:28.692Z,4.20
2023-05-07T07:52:00.390Z,3.92
2023-05-07T07:54:30.241Z,3.53
2023-05-07T07:56:58.728Z,3.50
2023-05-07T07:59:28.411Z,3.65
2023-05-07T08:01:58.120Z,3.55
2023-05-07T08:04:28.693Z,4.07
2023-05-07T08:06:58.568Z,3.95
2023-05-07T08:09:27.471Z,3.65
2023-05-07T08:11:57.017Z,3.65
2023-05-07T08:14:25.456Z,3.92
2023-05-07T08:16:55.084Z,3.90
2023-05-07T08:19:24.248Z,4.05
2023-05-07T08:21:52.905Z,4.15
2023-05-07T08:24:22.189Z,3.90
2023-05-07T08:26:52.103Z,4.25
2023-05-07T08:29:21.199Z,3.92
2023-05-07T08:31:49.885Z,3.92
2023-05-07T08:34:19.476Z,4.20
2023-05-07T08:36:49.900Z,4.65
2023-05-07T08:39:21.303Z,3.95
2023-05-07T08:41:56.967Z,4.15
2023-05-07T08:44:29.540Z,3.70
2023-05-07T08:47:00.478Z,4.07
2023-05-07T08:49:31.229Z,3.92
2023-05-07T08:52:00.177Z,4.03
2023-05-07T08:54:31.222Z,3.67
2023-05-07T08:57:00.477Z,3.53
2023-05-07T08:59:29.240Z,4.10
2023-05-07T09:01:57.523Z,3.75
2023-05-07T09:04:26.062Z,3.30
2023-05-07T09:06:57.033Z,3.25
2023-05-07T09:09:26.220Z,3.40
2023-05-07T09:12:00.809Z,3.50
2023-05-07T09:14:31.628Z,3.90
2023-05-07T09:17:00.568Z,3.45
2023-05-07T09:19:29.468Z,3.92
2023-05-07T09:22:03.374Z,3.53
2023-05-07T09:24:39.064Z,3.40
2023-05-07T09:27:14.223Z,3.67
2023-05-07T09:29:45.905Z,3.60
2023-05-07T09:32:17.625Z,3.50
2023-05-07T09:34:46.290Z,3.53
2023-05-07T09:37:17.699Z,3.88
2023-05-07T09:39:47.445Z,3.83
2023-05-07T09:42:18.177Z,3.90
2023-05-07T09:44:46.878Z,3.33
2023-05-07T09:47:23.064Z,3.83
2023-05-07T09:49:58.323Z,3.33
2023-05-07T09:52:34.392Z,3.17
2023-05-07T09:55:07.009Z,3.25
2023-05-07T09:57:36.539Z,3.20
2023-05-07T10:00:10.237Z,3.75
2023-05-07T10:02:52.960Z,3.67
2023-05-07T10:05:28.239Z,3.33
2023-05-07T10:08:02.682Z,3.00
2023-05-07T10:10:34.809Z,2.80
2023-05-07T10:13:06.887Z,2.60
2023-05-07T10:15:37.241Z,2.78
2023-05-07T10:18:06.697Z,2.70
2023-05-07T10:20:36.669Z,2.78
2023-05-07T10:23:10.072Z,3.00
2023-05-07T10:25:44.149Z,3.55
2023-05-07T10:28:21.693Z,3.13
2023-05-07T10:31:03.295Z,3.00
2023-05-07T10:33:41.175Z,4.45
2023-05-07T10:36:10.586Z,3.42
2023-05-07T10:38:41.670Z,3.25
2023-05-07T10:41:10.676Z,3.00
2023-05-07T10:43:43.826Z,3.10
2023-05-07T10:46:18.667Z,3.78
2023-05-07T10:49:13.955Z,2.60
2023-05-07T10:52:17.317Z,2.42
2023-05-07T10:55:26.325Z,2.40
2023-05-07T11:01:11.162Z,1.88
2023-05-07T11:04:14.946Z,2.72
2023-05-07T11:07:34.167Z,2.28
2023-05-07T11:10:08.819Z,2.53
2023-05-07T11:12:58.469Z,2.47
2023-05-07T11:15:48.459Z,2.22
2023-05-07T11:18:48.887Z,2.30
2023-05-07T11:21:36.629Z,1.60
2023-05-07T11:24:19.961Z,1.90
2023-05-07T11:27:06.636Z,1.90
2023-05-07T11:29:36.573Z,2.70
2023-05-07T11:32:15.133Z,2.90
2023-05-07T11:34:54.122Z,2.40
2023-05-07T11:37:23.212Z,2.38
2023-05-07T11:40:06.612Z,2.20
2023-05-07T11:42:36.389Z,1.90
2023-05-07T11:45:07.744Z,2.33
2023-05-07T11:47:36.872Z,2.10
2023-05-07T11:50:07.244Z,2.70
2023-05-07T11:52:35.971Z,2.20
2023-05-07T11:55:05.795Z,2.80
2023-05-07T11:57:35.583Z,2.60
2023-05-07T12:00:06.470Z,2.40
2023-05-07T12:02:44.770Z,2.83
2023-05-07T12:05:13.673Z,2.83
2023-05-07T12:07:42.988Z,2.60
2023-05-07T12:10:14.232Z,2.83
2023-05-07T12:12:43.298Z,3.17
2023-05-07T12:15:13.296Z,3.38
2023-05-07T12:17:42.524Z,4.53
2023-05-07T12:20:12.558Z,3.88
2023-05-07T12:22:40.851Z,4.65
2023-05-07T12:25:10.193Z,3.80
2023-05-07T12:27:41.039Z,4.85
2023-05-07T12:30:14.306Z,4.30
2023-05-07T12:32:42.634Z,3.67
2023-05-07T12:35:11.212Z,4.82
2023-05-07T12:37:40.244Z,4.18
2023-05-07T12:40:09.894Z,4.63
2023-05-07T12:42:39.884Z,4.18
2023-05-07T12:45:14.837Z,4.00
2023-05-07T12:47:46.879Z,4.45
2023-05-07T12:50:16.335Z,5.00
2023-05-07T12:52:46.193Z,5.80
2023-05-07T12:55:17.000Z,5.15
2023-05-07T12:57:48.037Z,5.65
2023-05-07T13:00:18.446Z,6.60
2023-05-07T13:02:47.451Z,6.78
2023-05-07T13:05:15.923Z,6.68
2023-05-07T13:07:54.924Z,8.05
2023-05-07T13:10:24.145Z,7.50
2023-05-07T13:12:52.869Z,7.85
2023-05-07T13:15:23.097Z,7.95
2023-05-07T13:17:51.333Z,8.50
2023-05-07T13:20:19.580Z,8.40
2023-05-07T13:22:47.825Z,8.60
2023-05-07T13:25:16.391Z,8.45
2023-05-07T13:27:44.611Z,7.50
2023-05-07T13:30:13.140Z,7.07
2023-05-07T13:32:42.869Z,7.45
2023-05-07T13:35:11.566Z,7.80
2023-05-07T13:37:40.536Z,7.45
2023-05-07T13:40:10.227Z,7.60
2023-05-07T13:42:38.786Z,7.15
2023-05-07T13:45:08.622Z,7.35
2023-05-07T13:47:40.155Z,6.50
2023-05-07T13:50:12.518Z,7.10
2023-05-07T13:52:42.107Z,7.05
2023-05-07T13:55:10.905Z,7.20
2023-05-07T13:57:39.276Z,6.88
2023-05-07T14:00:08.877Z,6.80
2023-05-07T14:02:43.398Z,7.22
2023-05-07T14:05:14.476Z,6.90
2023-05-07T14:07:42.704Z,6.78
2023-05-07T14:10:16.709Z,7.43
2023-05-07T14:12:45.718Z,5.90
2023-05-07T14:15:15.738Z,5.93
2023-05-07T14:17:44.178Z,6.47
2023-05-07T14:20:14.835Z,6.65
2023-05-07T14:22:43.285Z,7.15
2023-05-07T14:25:11.895Z,6.30
2023-05-07T14:27:40.438Z,6.78
2023-05-07T14:30:10.097Z,6.38
2023-05-07T14:32:39.029Z,6.15
2023-05-07T14:35:07.659Z,6.00
2023-05-07T14:37:37.623Z,5.20
2023-05-07T14:40:06.594Z,5.72
2023-05-07T14:42:35.608Z,5.95
2023-05-07T14:45:04.029Z,5.70
2023-05-07T14:47:32.558Z,6.50
2023-05-07T14:50:02.109Z,6.05
2023-05-07T14:52:30.597Z,5.25
2023-05-07T14:55:00.185Z,5.15
2023-05-07T14:57:32.828Z,4.75
2023-05-07T15:00:01.661Z,5.57
2023-05-07T15:02:30.155Z,5.50
2023-05-07T15:04:58.532Z,5.47
2023-05-07T15:07:26.889Z,5.50
2023-05-07T15:09:55.450Z,5.70
2023-05-07T15:12:25.143Z,5.40
2023-05-07T15:14:53.673Z,5.22
2023-05-07T15:17:21.845Z,6.10
2023-05-07T15:19:50.196Z,5.50
2023-05-07T15:22:18.934Z,5.65
2023-05-07T15:24:47.285Z,6.57
2023-05-07T15:27:15.461Z,6.65
2023-05-07T15:29:45.053Z,6.25
2023-05-07T15:32:14.325Z,6.95
2023-05-07T15:34:43.086Z,6.88
2023-05-07T15:37:12.965Z,7.53
2023-05-07T15:39:41.409Z,7.20
2023-05-07T15:42:09.804Z,7.75
2023-05-07T15:44:38.089Z,8.07
2023-05-07T15:47:07.767Z,8.07
2023-05-07T15:49:35.950Z,8.10
2023-05-07T15:52:04.555Z,8.60
2023-05-07T15:54:32.840Z,8.15
2023-05-07T15:57:01.998Z,8.13
2023-05-07T15:59:30.432Z,8.77
2023-05-07T16:01:58.778Z,9.18
2023-05-07T16:04:38.194Z,8.80
2023-05-07T16:21:37.192Z,10.38
2023-05-07T16:24:05.748Z,11.77
2023-05-07T16:26:34.028Z,10.38
2023-05-07T16:29:02.875Z,10.57
2023-05-07T16:31:31.256Z,10.27
2023-05-07T16:34:01.167Z,11.10
2023-05-07T16:36:29.716Z,12.18
2023-05-07T16:38:59.447Z,10.98
2023-05-07T16:41:27.779Z,11.27
2023-05-07T16:43:57.670Z,11.48
2023-05-07T16:46:26.516Z,10.68
2023-05-07T16:48:54.957Z,10.68
2023-05-07T16:51:24.548Z,10.30
2023-05-07T16:53:52.767Z,11.05
2023-05-07T16:56:22.904Z,10.30
2023-05-07T16:58:51.228Z,10.95
2023-05-07T17:01:19.870Z,10.43
2023-05-07T17:03:48.174Z,9.65
2023-05-07T17:06:16.631Z,10.35
2023-05-07T17:08:44.930Z,11.73
2023-05-07T17:11:13.429Z,9.18
2023-05-07T17:13:43.080Z,8.40
2023-05-07T17:16:12.122Z,8.02
2023-05-07T17:18:40.503Z,9.13
2023-05-07T17:21:09.298Z,8.00
2023-05-07T17:23:37.522Z,8.05
2023-05-07T17:26:13.673Z,9.25
2023-05-07T17:28:43.331Z,8.77
2023-05-07T17:31:12.344Z,9.93
2023-05-07T17:33:40.490Z,8.90
2023-05-07T17:36:09.278Z,8.95
2023-05-07T17:38:37.577Z,10.85
2023-05-07T17:41:06.464Z,9.98
2023-05-07T17:43:34.725Z,12.23
2023-05-07T17:46:04.404Z,11.88
2023-05-07T17:48:32.594Z,11.40
2023-05-07T17:51:04.683Z,11.02
2023-05-07T17:53:32.867Z,12.40
2023-05-07T17:56:01.110Z,13.20
2023-05-07T17:58:29.378Z,11.82
2023-05-07T18:00:57.739Z,13.15
2023-05-07T18:03:29.410Z,11.43
2023-05-07T18:05:57.778Z,12.05
2023-05-07T18:08:26.083Z,11.30
2023-05-07T18:10:54.753Z,12.02
2023-05-07T18:13:22.990Z,10.80
2023-05-07T18:15:51.503Z,11.43
2023-05-07T18:18:19.691Z,9.77
2023-05-07T18:20:51.803Z,10.13
2023-05-07T18:23:20.017Z,9.27
2023-05-07T18:25:48.268Z,8.70
2023-05-07T18:28:16.521Z,10.07
2023-05-07T18:30:44.758Z,9.25
2023-05-07T18:33:14.226Z,9.15
2023-05-07T18:35:42.455Z,9.32
2023-05-07T18:38:12.185Z,9.57
2023-05-07T18:40:43.900Z,11.05
2023-05-07T18:43:12.246Z,12.57
2023-05-07T18:45:41.552Z,11.30
2023-05-07T18:48:09.820Z,11.95
2023-05-07T18:50:38.069Z,11.02
2023-05-07T18:53:06.241Z,11.18
2023-05-07T18:55:36.170Z,11.75
2023-05-07T18:58:04.412Z,13.60
2023-05-07T19:00:32.644Z,15.18
2023-05-07T19:03:01.015Z,14.20
2023-05-07T19:05:29.260Z,13.85
2023-05-07T19:07:57.443Z,13.23
2023-05-07T19:10:25.711Z,12.50
2023-05-07T19:12:55.711Z,13.70
2023-05-07T19:15:24.247Z,14.18
2023-05-07T19:17:52.522Z,13.57
2023-05-07T19:20:21.193Z,14.98
2023-05-07T19:22:50.552Z,13.60
2023-05-07T19:25:19.124Z,12.82
2023-05-07T19:27:48.043Z,12.13
2023-05-07T19:30:18.340Z,12.90
2023-05-07T19:32:47.051Z,12.93
2023-05-07T19:35:15.795Z,12.63
2023-05-07T19:37:44.258Z,12.52
2023-05-07T19:40:14.638Z,13.15
2023-05-07T19:42:43.805Z,14.85
2023-05-07T19:45:13.043Z,14.50
2023-05-07T19:47:42.814Z,13.90
2023-05-07T19:50:12.070Z,13.98
2023-05-07T19:52:40.215Z,12.68
2023-05-07T19:55:09.669Z,14.85
2023-05-07T19:57:38.101Z,14.00
2023-05-07T20:00:08.278Z,13.65
2023-05-07T20:02:42.752Z,14.30
2023-05-07T20:05:13.930Z,13.70
2023-05-07T20:07:43.693Z,12.30
2023-05-07T20:10:12.795Z,13.38
2023-05-07T20:12:41.344Z,13.88
2023-05-07T20:15:11.146Z,16.02
2023-05-07T20:17:39.409Z,16.60
2023-05-07T20:20:10.857Z,13.55
2023-05-07T20:22:39.761Z,15.50
2023-05-07T20:25:09.274Z,13.70
2023-05-07T20:27:39.695Z,16.35
2023-05-07T20:30:09.547Z,14.68
2023-05-07T20:32:37.862Z,16.27
2023-05-07T20:35:07.941Z,15.65
2023-05-07T20:37:36.831Z,13.60
2023-05-07T20:40:05.851Z,12.98
2023-05-07T20:42:34.086Z,14.70
2023-05-07T20:45:03.748Z,15.07
2023-05-07T20:47:33.548Z,13.75
2023-05-07T20:50:01.786Z,13.15
2023-05-07T20:52:31.563Z,9.88
2023-05-07T20:54:59.698Z,9.32
2023-05-07T20:57:28.230Z,9.68
2023-05-07T20:59:56.878Z,8.65
2023-05-07T21:02:25.157Z,7.55
2023-05-07T21:04:54.022Z,7.57
2023-05-07T21:07:22.217Z,8.25
2023-05-07T21:09:51.735Z,7.22
2023-05-07T21:12:19.926Z,6.05
2023-05-07T21:14:48.626Z,6.38
2023-05-07T21:17:17.104Z,5.68
2023-05-07T21:19:45.680Z,4.88
2023-05-07T21:22:13.986Z,5.07
2023-05-07T21:24:42.272Z,4.80
2023-05-07T21:27:12.145Z,4.75
2023-05-07T21:29:40.367Z,4.90
2023-05-07T21:32:08.602Z,6.03
2023-05-07T21:34:36.842Z,4.72
2023-05-07T21:37:06.041Z,4.53
2023-05-07T21:39:34.219Z,5.07
2023-05-07T21:42:03.357Z,5.90
2023-05-07T21:44:33.060Z,6.47
2023-05-07T21:47:01.179Z,5.95
2023-05-07T21:49:29.307Z,5.95
2023-05-07T21:51:57.539Z,6.30
2023-05-07T21:54:25.751Z,6.15
2023-05-07T21:56:54.437Z,7.38
2023-05-07T21:59:22.914Z,6.82
2023-05-07T22:01:52.684Z,6.97
2023-05-07T22:04:21.380Z,6.85
2023-05-07T22:06:50.079Z,6.30
2023-05-07T22:09:18.190Z,7.32
2023-05-07T22:11:46.400Z,7.68
2023-05-07T22:14:14.960Z,7.00
2023-05-07T22:16:43.161Z,6.30
2023-05-07T22:19:14.411Z,8.05
2023-05-07T22:21:42.566Z,12.23
2023-05-07T22:24:11.095Z,11.82
2023-05-07T22:26:39.362Z,12.98
2023-05-07T22:29:07.503Z,14.00
2023-05-07T22:31:36.071Z,13.43
2023-05-07T22:34:07.531Z,14.90
2023-05-07T22:36:37.069Z,13.95
2023-05-07T22:39:07.125Z,13.95
2023-05-07T22:41:35.710Z,14.23
2023-05-07T22:44:03.863Z,15.65
2023-05-07T22:46:32.619Z,16.35
2023-05-07T22:49:01.012Z,15.68
2023-05-07T22:51:29.807Z,15.05
2023-05-07T22:53:59.328Z,16.10
2023-05-07T22:56:27.543Z,16.73
2023-05-07T22:58:55.684Z,16.05
2023-05-07T23:01:23.978Z,15.32
2023-05-07T23:03:52.685Z,16.10
2023-05-07T23:06:21.247Z,17.05
2023-05-07T23:08:49.505Z,15.30
2023-05-07T23:11:19.031Z,16.67
2023-05-07T23:13:47.232Z,16.60
2023-05-07T23:16:15.419Z,15.93
2023-05-07T23:18:43.634Z,15.82
2023-05-07T23:21:11.881Z,16.10
2023-05-07T23:23:40.320Z,16.52
2023-05-07T23:26:08.570Z,15.75
2023-05-07T23:28:38.455Z,15.85
2023-05-07T23:31:08.435Z,15.70
2023-05-07T23:33:36.708Z,16.85
2023-05-07T23:36:06.803Z,15.70
2023-05-07T23:38:35.563Z,15.95
2023-05-07T23:41:03.767Z,16.35
2023-05-07T23:43:32.126Z,16.02
2023-05-07T23:46:02.832Z,15.75
2023-05-07T23:48:31.112Z,15.52
2023-05-07T23:51:06.926Z,16.83
2023-05-07T23:53:35.108Z,17.08
2023-05-07T23:56:03.696Z,17.08
2023-05-07T23:58:31.875Z,16.85
